Niceville, FL (32578)

11:27 AM CST on December 09, 2016 (GMT -0600)
BayView Cam/Weather courtesy Clara Miles, REALTOR | | Change Station

Elev 27 ft 30.49 °N, 86.46 °W | Updated 14 minutes ago

Clear
Clear
48.0 °F
Feels Like 48 °F
N
0.0
Wind Variable Wind from North
Gusts 14.0 mph

Today
High -- | Low -- °F
--% Chance of Precip.
Yesterday
High -- | Low -- °F
Precip. -- in
Pressure 30.48 in
Visibility 10.0 miles
Clouds Few 25000 ft
Windchill 48 °F
Dew Point 23 °F
Humidity 38%
Rainfall 0.00 in
Snow Depth Not available.
6:31 AM 4:45 PM
Waxing Gibbous, 75% visible
METAR KVPS 091655Z 03014KT 10SM FEW250 09/M09 A3046 RMK AO2A SLP322 T00871093 $
Pressure 30.48 in
Visibility 10.0 miles
Clouds Few 25000 ft
Windchill 48 °F
Dew Point 23 °F
Humidity 38%
Rainfall 0.00 in
Snow Depth Not available.
6:31 AM 4:45 PM
Waxing Gibbous, 75% visible
METAR KVPS 091655Z 03014KT 10SM FEW250 09/M09 A3046 RMK AO2A SLP322 T00871093 $

10-Day Weather Forecast

Almanac

Astronomy

Dec. 09, 2016 Rise Set
Actual Time
Civil Twilight
Nautical Twilight
Astronomical Twilight
Moon
Length of Visible Light
Length of Day
Tomorrow will be .
, % of the Moon is Illuminated

Today's Extremes

State Highs State Lows

Community

WunderPhotos

Upload Photos

1,956,462 photos uploaded!

WunderBlog® & News

Nearby

Air Quality

  Air Quality AQ Index Pollutant
Not available.

Snow Depth

Station Depth Elevation

Earthquake Activity

City Distance Mag. Time & Date
Minimum magnitude displayed is 2.5.

Coastal Water Temperatures

Place Temperature

Stations

Nearby Weather Stations

Station Location Temp. Windchill Dew Point Humidity Wind Precip. Elev Updated Type
                   

Watches & Warnings

There are currently no watches in effect.